Time;durP1;ratioP1;P1;durP2;ratioP2;P2;SDS_P1;SDS_P2;PMS_P1;PMS_P2;Temp;Humidity;BMP_temperature;BMP_pressure;BME280_temperature;BME280_humidity;BME280_pressure;Samples;Min_cycle;Max_cycle;Signal;HPM_P1;HPM_P2
2022/03/08 00:02:24;;;;;;;0.50;0.50;;;;;;;;;;5005979;28;20041;-81
2022/03/08 00:04:50;;;;;;;0.40;0.40;;;;;;;;;;5005723;28;20056;-80
2022/03/08 00:07:16;;;;;;;0.60;0.60;;;;;;;;;;5005733;28;20042;-80
2022/03/08 00:09:43;;;;;;;0.50;0.50;;;;;;;;;;5005423;28;20470;-80
2022/03/08 00:12:10;;;;;;;0.50;0.50;;;;;;;;;;5005830;28;20505;-80
2022/03/08 00:14:36;;;;;;;0.40;0.40;;;;;;;;;;5005758;28;20048;-80
2022/03/08 00:17:03;;;;;;;0.50;0.50;;;;;;;;;;5005406;28;20037;-81
2022/03/08 00:19:29;;;;;;;0.45;0.45;;;;;;;;;;5005506;28;20058;-80
2022/03/08 00:21:56;;;;;;;0.50;0.50;;;;;;;;;;5005646;28;20117;-80
2022/03/08 00:24:22;;;;;;;0.60;0.60;;;;;;;;;;5005468;28;20277;-80
2022/03/08 00:26:48;;;;;;;0.60;0.60;;;;;;;;;;5005988;28;20058;-81
2022/03/08 00:29:14;;;;;;;0.40;0.40;;;;;;;;;;5005049;28;20033;-80
2022/03/08 00:31:40;;;;;;;0.50;0.50;;;;;;;;;;5005091;28;20045;-80
2022/03/08 00:34:06;;;;;;;0.60;0.60;;;;;;;;;;5005392;28;20044;-79
2022/03/08 00:36:33;;;;;;;0.50;0.50;;;;;;;;;;5005349;28;20071;-79
2022/03/08 00:38:59;;;;;;;0.60;0.60;;;;;;;;;;5005675;28;20025;-79
2022/03/08 00:41:25;;;;;;;0.40;0.40;;;;;;;;;;5004752;28;20034;-79
2022/03/08 00:43:51;;;;;;;0.90;0.90;;;;;;;;;;5004921;28;20374;-80
2022/03/08 00:46:17;;;;;;;0.70;0.70;;;;;;;;;;5004949;28;20034;-80
2022/03/08 00:48:43;;;;;;;0.75;0.75;;;;;;;;;;5004946;28;20463;-79
2022/03/08 00:51:10;;;;;;;0.77;0.77;;;;;;;;;;5004903;28;20045;-80
2022/03/08 00:53:36;;;;;;;0.65;0.65;;;;;;;;;;5005402;28;20491;-80
2022/03/08 00:56:02;;;;;;;0.60;0.60;;;;;;;;;;5003249;28;20026;-79
2022/03/08 00:58:28;;;;;;;0.65;0.65;;;;;;;;;;4994699;28;20146;-80
2022/03/08 01:00:54;;;;;;;0.82;0.82;;;;;;;;;;5002393;28;20192;-80
2022/03/08 01:03:20;;;;;;;0.70;0.70;;;;;;;;;;5004699;28;20034;-82
2022/03/08 01:05:46;;;;;;;0.77;0.77;;;;;;;;;;4994989;28;20136;-81
2022/03/08 01:08:13;;;;;;;0.90;0.90;;;;;;;;;;5000603;28;20030;-80
2022/03/08 01:10:39;;;;;;;;;;;;;;;;;;4998082;28;20065;-80
2022/03/08 01:13:05;;;;;;;0.75;0.75;;;;;;;;;;5002721;28;19986;-80
2022/03/08 01:15:31;;;;;;;0.90;0.90;;;;;;;;;;5004994;28;20029;-79
2022/03/08 01:17:57;;;;;;;0.75;0.75;;;;;;;;;;5003704;28;20065;-79
2022/03/08 01:20:24;;;;;;;0.50;0.50;;;;;;;;;;5004185;28;20585;-81
2022/03/08 01:22:50;;;;;;;0.45;0.45;;;;;;;;;;5002800;28;20065;-80
2022/03/08 01:25:17;;;;;;;0.50;0.50;;;;;;;;;;5004085;28;20053;-79
2022/03/08 01:27:43;;;;;;;0.60;0.60;;;;;;;;;;5004383;28;20030;-79
2022/03/08 01:30:11;;;;;;;0.60;0.60;;;;;;;;;;4988768;28;20035;-79
2022/03/08 01:32:37;;;;;;;0.57;0.57;;;;;;;;;;5004301;28;20041;-80
2022/03/08 01:35:04;;;;;;;0.60;0.60;;;;;;;;;;5004539;28;20458;-80
2022/03/08 01:37:30;;;;;;;0.50;0.50;;;;;;;;;;5004612;28;20571;-79
2022/03/08 01:39:56;;;;;;;0.50;0.50;;;;;;;;;;5004048;28;20018;-80
2022/03/08 01:42:23;;;;;;;0.50;0.50;;;;;;;;;;5003933;28;20037;-80
2022/03/08 01:44:50;;;;;;;0.60;0.60;;;;;;;;;;4994987;28;20030;-79
2022/03/08 01:47:17;;;;;;;0.60;0.60;;;;;;;;;;5003624;28;20034;-80
2022/03/08 01:49:44;;;;;;;0.57;0.57;;;;;;;;;;5003855;28;20137;-80
2022/03/08 01:52:10;;;;;;;0.43;0.43;;;;;;;;;;5000402;28;20038;-80
2022/03/08 01:54:37;;;;;;;0.60;0.60;;;;;;;;;;5003567;28;20053;-80
2022/03/08 01:57:06;;;;;;;0.60;0.60;;;;;;;;;;5000604;28;20719;-80
2022/03/08 01:59:32;;;;;;;0.88;0.88;;;;;;;;;;5003872;28;20847;-79
2022/03/08 02:01:58;;;;;;;0.53;0.53;;;;;;;;;;5004271;28;20030;-79
2022/03/08 02:04:25;;;;;;;0.60;0.60;;;;;;;;;;5003758;28;20034;-79
2022/03/08 02:06:51;;;;;;;0.60;0.60;;;;;;;;;;5003558;28;20347;-79
2022/03/08 02:09:17;;;;;;;0.70;0.70;;;;;;;;;;5002023;28;20607;-79
2022/03/08 02:11:44;;;;;;;0.50;0.50;;;;;;;;;;5003721;28;20041;-79
2022/03/08 02:14:10;;;;;;;0.60;0.60;;;;;;;;;;5003295;28;20383;-79
2022/03/08 02:16:36;;;;;;;0.50;0.50;;;;;;;;;;5003647;28;20095;-80
2022/03/08 02:19:03;;;;;;;0.50;0.50;;;;;;;;;;5003768;28;20026;-79
2022/03/08 02:21:33;;;;;;;0.60;0.60;;;;;;;;;;5003541;28;20044;-79
2022/03/08 02:23:59;;;;;;;0.50;0.50;;;;;;;;;;5004080;28;20646;-78
2022/03/08 02:26:26;;;;;;;0.45;0.45;;;;;;;;;;5002581;28;20417;-79
2022/03/08 02:28:52;;;;;;;0.57;0.57;;;;;;;;;;5002993;28;20030;-79
2022/03/08 02:31:18;;;;;;;0.50;0.50;;;;;;;;;;5003344;28;20049;-79
2022/03/08 02:33:45;;;;;;;0.60;0.60;;;;;;;;;;5003242;28;20077;-77
2022/03/08 02:36:11;;;;;;;0.60;0.60;;;;;;;;;;5003194;28;20288;-78
2022/03/08 02:38:37;;;;;;;0.52;0.52;;;;;;;;;;5003457;28;20084;-78
2022/03/08 02:41:03;;;;;;;0.50;0.50;;;;;;;;;;5002816;28;20029;-78
2022/03/08 02:43:29;;;;;;;0.50;0.50;;;;;;;;;;5003046;28;20029;-78
2022/03/08 02:45:55;;;;;;;0.60;0.60;;;;;;;;;;5001712;28;20021;-78
2022/03/08 02:48:25;;;;;;;0.60;0.60;;;;;;;;;;5002757;28;20164;-81
2022/03/08 02:50:51;;;;;;;0.50;0.50;;;;;;;;;;5001844;28;20049;-81
2022/03/08 02:53:17;;;;;;;0.60;0.60;;;;;;;;;;5003050;28;20022;-81
2022/03/08 02:55:43;;;;;;;0.43;0.43;;;;;;;;;;5001825;28;20037;-82
2022/03/08 02:58:09;;;;;;;0.50;0.50;;;;;;;;;;5003326;28;20088;-81
2022/03/08 03:00:35;;;;;;;0.50;0.50;;;;;;;;;;5002930;28;20034;-81
2022/03/08 03:03:02;;;;;;;0.50;0.50;;;;;;;;;;5003504;28;20458;-81
2022/03/08 03:05:29;;;;;;;0.40;0.40;;;;;;;;;;5002684;28;20044;-80
2022/03/08 03:07:57;;;;;;;0.57;0.57;;;;;;;;;;5001118;28;20042;-81
2022/03/08 03:10:23;;;;;;;0.60;0.60;;;;;;;;;;5003109;28;20038;-81
2022/03/08 03:12:49;;;;;;;0.60;0.60;;;;;;;;;;5003090;28;20049;-78
2022/03/08 03:15:16;;;;;;;0.63;0.63;;;;;;;;;;5003224;28;20184;-78
2022/03/08 03:17:42;;;;;;;0.60;0.60;;;;;;;;;;5003873;28;20490;-79
2022/03/08 03:20:10;;;;;;;0.50;0.50;;;;;;;;;;5002990;28;20037;-78
2022/03/08 03:22:35;;;;;;;;;;;;;;;;;;5001796;28;20108;-78
2022/03/08 03:25:02;;;;;;;0.50;0.50;;;;;;;;;;5006756;28;20463;-78
2022/03/08 03:27:28;;;;;;;0.40;0.40;;;;;;;;;;5007063;28;20091;-78
2022/03/08 03:29:54;;;;;;;0.40;0.40;;;;;;;;;;5007073;28;20576;-78
2022/03/08 03:32:22;;;;;;;0.60;0.60;;;;;;;;;;5006926;28;20124;-78
2022/03/08 03:34:48;;;;;;;0.60;0.60;;;;;;;;;;5006999;28;20125;-78
2022/03/08 03:37:14;;;;;;;0.60;0.60;;;;;;;;;;5007057;28;20061;-78
2022/03/08 03:39:40;;;;;;;0.60;0.60;;;;;;;;;;5007183;28;20054;-77
2022/03/08 03:42:07;;;;;;;0.50;0.50;;;;;;;;;;5007585;28;20030;-77
2022/03/08 03:44:33;;;;;;;0.60;0.60;;;;;;;;;;5006664;28;20033;-78
2022/03/08 03:46:59;;;;;;;0.40;0.40;;;;;;;;;;5006389;28;20545;-78
2022/03/08 03:49:25;;;;;;;0.52;0.52;;;;;;;;;;5006839;28;20038;-78
2022/03/08 03:51:51;;;;;;;0.60;0.60;;;;;;;;;;5006150;28;20040;-78
2022/03/08 03:54:23;;;;;;;0.60;0.60;;;;;;;;;;5006587;28;20435;-79
2022/03/08 03:56:49;;;;;;;0.57;0.57;;;;;;;;;;5004846;28;20043;-79
2022/03/08 03:59:15;;;;;;;0.52;0.52;;;;;;;;;;5006160;28;20045;-78
2022/03/08 04:01:41;;;;;;;0.50;0.50;;;;;;;;;;5006011;28;20040;-78
2022/03/08 04:04:08;;;;;;;0.50;0.50;;;;;;;;;;5006238;28;20030;-78
2022/03/08 04:06:34;;;;;;;0.50;0.50;;;;;;;;;;5005890;28;20030;-78
2022/03/08 04:09:01;;;;;;;0.60;0.60;;;;;;;;;;5006985;28;20041;-79
2022/03/08 04:11:27;;;;;;;0.60;0.60;;;;;;;;;;5005766;28;20533;-80
2022/03/08 04:13:53;;;;;;;0.50;0.50;;;;;;;;;;5005387;28;20498;-80
2022/03/08 04:16:19;;;;;;;0.45;0.45;;;;;;;;;;5003747;28;20034;-81
2022/03/08 04:18:45;;;;;;;0.50;0.50;;;;;;;;;;5005381;28;20042;-80
2022/03/08 04:21:11;;;;;;;0.50;0.50;;;;;;;;;;5004551;28;20026;-80
2022/03/08 04:23:37;;;;;;;0.50;0.50;;;;;;;;;;5005552;28;20506;-80
2022/03/08 04:26:03;;;;;;;0.47;0.47;;;;;;;;;;5005008;28;20034;-80
2022/03/08 04:28:29;;;;;;;0.40;0.40;;;;;;;;;;5005622;28;20038;-80
2022/03/08 04:30:55;;;;;;;0.45;0.45;;;;;;;;;;5005431;28;20042;-80
2022/03/08 04:33:21;;;;;;;0.60;0.60;;;;;;;;;;5005336;28;20026;-80
2022/03/08 04:35:47;;;;;;;0.60;0.60;;;;;;;;;;5005413;28;20037;-80
2022/03/08 04:38:13;;;;;;;0.50;0.50;;;;;;;;;;5005675;28;20028;-80
2022/03/08 04:40:40;;;;;;;0.57;0.57;;;;;;;;;;5005325;28;20069;-80
2022/03/08 04:43:06;;;;;;;0.60;0.60;;;;;;;;;;5005553;28;20029;-79
2022/03/08 04:45:32;;;;;;;0.60;0.60;;;;;;;;;;5005254;28;20323;-79
2022/03/08 04:47:58;;;;;;;0.52;0.52;;;;;;;;;;5005682;28;20066;-80
2022/03/08 04:50:24;;;;;;;0.57;0.57;;;;;;;;;;5003564;28;20072;-80
2022/03/08 04:52:50;;;;;;;0.50;0.50;;;;;;;;;;5005093;28;20022;-80
2022/03/08 04:55:17;;;;;;;0.50;0.50;;;;;;;;;;5004792;28;20346;-79
2022/03/08 04:57:44;;;;;;;0.60;0.60;;;;;;;;;;5004966;28;20116;-79
2022/03/08 05:00:14;;;;;;;0.50;0.50;;;;;;;;;;5004361;28;20041;-79
2022/03/08 05:02:41;;;;;;;0.50;0.50;;;;;;;;;;5004032;28;20033;-79
2022/03/08 05:05:08;;;;;;;0.50;0.50;;;;;;;;;;5003972;28;20029;-78
2022/03/08 05:07:35;;;;;;;0.60;0.60;;;;;;;;;;5004071;28;20070;-78
2022/03/08 05:10:01;;;;;;;;;;;;;;;;;;5003439;28;20033;-79
2022/03/08 05:12:27;;;;;;;0.60;0.60;;;;;;;;;;4987677;28;19920;-79
2022/03/08 05:14:54;;;;;;;0.50;0.50;;;;;;;;;;5004386;28;20026;-79
2022/03/08 05:17:20;;;;;;;0.50;0.50;;;;;;;;;;5003811;28;20038;-79
2022/03/08 05:19:47;;;;;;;0.50;0.50;;;;;;;;;;5002478;28;20529;-79
2022/03/08 05:22:13;;;;;;;0.50;0.50;;;;;;;;;;5004012;28;20945;-79
2022/03/08 05:24:39;;;;;;;0.50;0.50;;;;;;;;;;5003664;28;20076;-79
2022/03/08 05:27:05;;;;;;;0.50;0.50;;;;;;;;;;5004641;28;20034;-78
2022/03/08 05:29:32;;;;;;;0.50;0.50;;;;;;;;;;5003655;28;20037;-80
2022/03/08 05:31:58;;;;;;;0.55;0.55;;;;;;;;;;5003586;28;20049;-80
2022/03/08 05:34:24;;;;;;;0.50;0.50;;;;;;;;;;5003505;28;20041;-79
2022/03/08 05:36:50;;;;;;;0.60;0.60;;;;;;;;;;5003450;28;20312;-85
2022/03/08 05:39:16;;;;;;;0.60;0.60;;;;;;;;;;5003292;28;20068;-82
2022/03/08 05:41:42;;;;;;;0.50;0.50;;;;;;;;;;5003300;28;20052;-82
2022/03/08 05:44:08;;;;;;;0.60;0.60;;;;;;;;;;5003127;28;20069;-82
2022/03/08 05:46:34;;;;;;;0.60;0.60;;;;;;;;;;5001928;28;20105;-80
2022/03/08 05:49:00;;;;;;;0.60;0.60;;;;;;;;;;5001298;28;20065;-79
2022/03/08 05:51:26;;;;;;;0.60;0.60;;;;;;;;;;5003192;28;20077;-77
2022/03/08 05:53:52;;;;;;;0.50;0.50;;;;;;;;;;5003468;28;20026;-78
2022/03/08 05:56:18;;;;;;;0.50;0.50;;;;;;;;;;5002762;28;20038;-82
2022/03/08 05:58:44;;;;;;;0.50;0.50;;;;;;;;;;4955869;28;1391950;-77
2022/03/08 06:01:11;;;;;;;0.60;0.60;;;;;;;;;;5001354;28;20030;-78
2022/03/08 06:03:38;;;;;;;0.50;0.50;;;;;;;;;;4992583;28;20070;-77
2022/03/08 06:06:04;;;;;;;0.60;0.60;;;;;;;;;;5004352;28;20888;-78
2022/03/08 06:08:30;;;;;;;0.50;0.50;;;;;;;;;;4999876;28;20042;-79
2022/03/08 06:10:56;;;;;;;0.50;0.50;;;;;;;;;;5002830;28;20073;-84
2022/03/08 06:13:22;;;;;;;0.50;0.50;;;;;;;;;;5002062;28;20044;-84
2022/03/08 06:15:48;;;;;;;0.50;0.50;;;;;;;;;;4996645;28;20520;-83
2022/03/08 06:18:14;;;;;;;0.50;0.50;;;;;;;;;;5002999;28;20698;-88
2022/03/08 06:20:40;;;;;;;0.50;0.50;;;;;;;;;;5015245;28;20045;-81
2022/03/08 06:23:07;;;;;;;0.50;0.50;;;;;;;;;;5002583;28;20026;-82
2022/03/08 06:25:33;;;;;;;0.60;0.60;;;;;;;;;;5003027;28;20498;-81
2022/03/08 06:27:59;;;;;;;0.40;0.40;;;;;;;;;;4998419;28;20757;-82
2022/03/08 06:30:25;;;;;;;0.45;0.45;;;;;;;;;;5002253;28;20037;-79
2022/03/08 06:32:52;;;;;;;0.50;0.50;;;;;;;;;;5003525;28;20112;-82
2022/03/08 06:35:19;;;;;;;0.40;0.40;;;;;;;;;;5002685;28;20061;-79
2022/03/08 06:37:45;;;;;;;0.40;0.40;;;;;;;;;;5001965;28;20034;-80
2022/03/08 06:40:11;;;;;;;0.43;0.43;;;;;;;;;;5002661;28;20703;-78
2022/03/08 06:42:37;;;;;;;0.30;0.30;;;;;;;;;;4993657;28;20069;-80
2022/03/08 06:45:05;;;;;;;0.40;0.40;;;;;;;;;;4997728;28;20692;-79
2022/03/08 06:47:31;;;;;;;0.40;0.40;;;;;;;;;;5001780;28;20822;-78
2022/03/08 06:49:57;;;;;;;0.40;0.40;;;;;;;;;;5001139;28;20033;-78
2022/03/08 06:52:23;;;;;;;0.40;0.40;;;;;;;;;;5002421;28;20048;-77
2022/03/08 06:54:49;;;;;;;0.40;0.40;;;;;;;;;;5002780;28;20144;-78
2022/03/08 06:57:15;;;;;;;0.30;0.30;;;;;;;;;;5003095;28;20490;-78
2022/03/08 06:59:41;;;;;;;0.30;0.30;;;;;;;;;;5002574;28;20803;-77
2022/03/08 07:02:07;;;;;;;0.40;0.40;;;;;;;;;;5001343;28;20317;-78
2022/03/08 07:04:33;;;;;;;0.32;0.32;;;;;;;;;;5002804;28;20061;-77
2022/03/08 07:06:59;;;;;;;0.30;0.30;;;;;;;;;;5003222;28;20029;-79
2022/03/08 07:09:25;;;;;;;0.30;0.30;;;;;;;;;;5002876;28;20030;-79
2022/03/08 07:11:52;;;;;;;0.40;0.40;;;;;;;;;;5003403;28;20069;-78
2022/03/08 07:14:18;;;;;;;0.40;0.40;;;;;;;;;;5002319;28;20030;-77
2022/03/08 07:16:48;;;;;;;0.30;0.30;;;;;;;;;;5002684;28;20038;-77
2022/03/08 07:19:14;;;;;;;0.50;0.50;;;;;;;;;;4998247;28;20025;-78
2022/03/08 07:21:41;;;;;;;0.40;0.40;;;;;;;;;;5002749;28;20030;-79
2022/03/08 07:24:07;;;;;;;0.40;0.40;;;;;;;;;;5003532;28;20104;-77
2022/03/08 07:26:33;;;;;;;0.40;0.40;;;;;;;;;;5002691;28;20045;-77
2022/03/08 07:28:59;;;;;;;0.40;0.40;;;;;;;;;;5002393;28;20599;-77
2022/03/08 07:31:25;;;;;;;0.50;0.50;;;;;;;;;;5002318;28;20053;-77
2022/03/08 07:33:51;;;;;;;0.50;0.50;;;;;;;;;;4999601;28;20281;-78
2022/03/08 07:36:18;;;;;;;0.50;0.50;;;;;;;;;;5002430;28;20045;-77
2022/03/08 07:38:44;;;;;;;0.50;0.50;;;;;;;;;;5003196;28;20026;-78
2022/03/08 07:41:10;;;;;;;0.50;0.50;;;;;;;;;;5002375;28;20034;-77
2022/03/08 07:43:36;;;;;;;0.40;0.40;;;;;;;;;;5001313;28;20026;-76
2022/03/08 07:46:06;;;;;;;0.50;0.50;;;;;;;;;;5002213;28;20563;-77
2022/03/08 07:48:32;;;;;;;0.40;0.40;;;;;;;;;;5002108;28;20030;-77
2022/03/08 07:50:59;;;;;;;1.00;1.00;;;;;;;;;;5001540;28;20612;-79
2022/03/08 07:53:25;;;;;;;0.40;0.40;;;;;;;;;;4998939;28;20524;-79
2022/03/08 07:55:51;;;;;;;1.63;1.63;;;;;;;;;;5002281;28;20038;-79
2022/03/08 07:58:17;;;;;;;1.20;1.20;;;;;;;;;;5002218;28;20112;-78
2022/03/08 08:00:43;;;;;;;0.63;0.63;;;;;;;;;;5000762;28;20045;-79
2022/03/08 08:03:09;;;;;;;0.60;0.60;;;;;;;;;;5002964;28;20355;-79
2022/03/08 08:05:36;;;;;;;0.77;0.77;;;;;;;;;;5002582;28;20022;-79
2022/03/08 08:08:03;;;;;;;1.75;1.75;;;;;;;;;;5001014;28;20034;-81
2022/03/08 08:10:29;;;;;;;;;;;;;;;;;;5005162;28;20066;-81
2022/03/08 08:12:55;;;;;;;1.08;1.08;;;;;;;;;;5006294;28;20011;-81
2022/03/08 08:15:21;;;;;;;0.60;0.60;;;;;;;;;;5006157;28;20033;-82
2022/03/08 08:17:47;;;;;;;1.53;1.53;;;;;;;;;;5006429;28;20184;-82
2022/03/08 08:20:13;;;;;;;0.70;0.70;;;;;;;;;;5006058;28;20356;-82
2022/03/08 08:22:39;;;;;;;0.80;0.80;;;;;;;;;;5005913;28;20042;-81
2022/03/08 08:25:06;;;;;;;0.70;0.70;;;;;;;;;;5005683;28;20045;-81
2022/03/08 08:27:32;;;;;;;0.50;0.50;;;;;;;;;;5005442;28;20038;-81
2022/03/08 08:29:58;;;;;;;1.70;1.70;;;;;;;;;;5005990;28;20134;-82
2022/03/08 08:32:24;;;;;;;0.50;0.50;;;;;;;;;;5005143;28;20864;-81
2022/03/08 08:34:50;;;;;;;0.63;0.63;;;;;;;;;;5005133;28;20032;-81
2022/03/08 08:37:16;;;;;;;0.40;0.40;;;;;;;;;;5005644;28;20382;-82
2022/03/08 08:39:42;;;;;;;0.30;0.30;;;;;;;;;;5005536;28;20034;-82
2022/03/08 08:42:09;;;;;;;0.43;0.43;;;;;;;;;;5006207;28;20269;-82
2022/03/08 08:44:35;;;;;;;1.85;1.85;;;;;;;;;;5005346;28;20838;-82
2022/03/08 08:47:01;;;;;;;0.60;0.60;;;;;;;;;;5003573;28;20502;-82
2022/03/08 08:49:28;;;;;;;0.63;0.63;;;;;;;;;;5005517;28;20061;-82
2022/03/08 08:51:55;;;;;;;0.80;0.80;;;;;;;;;;5005279;28;20072;-81
2022/03/08 08:54:21;;;;;;;0.60;0.60;;;;;;;;;;5005536;28;20034;-81
2022/03/08 08:56:47;;;;;;;0.40;0.40;;;;;;;;;;5005838;28;20108;-82
2022/03/08 08:59:14;;;;;;;0.60;0.60;;;;;;;;;;5004623;28;20077;-81
2022/03/08 09:01:39;;;;;;;0.50;0.50;;;;;;;;;;5005069;28;20038;-81
2022/03/08 09:04:06;;;;;;;1.05;1.05;;;;;;;;;;5003425;28;20025;-81
2022/03/08 09:06:32;;;;;;;1.05;1.05;;;;;;;;;;5005200;28;20034;-81
2022/03/08 09:08:58;;;;;;;0.50;0.50;;;;;;;;;;5005640;28;20076;-81
2022/03/08 09:11:25;;;;;;;0.50;0.50;;;;;;;;;;5004725;28;20054;-81
2022/03/08 09:13:51;;;;;;;0.40;0.40;;;;;;;;;;5004896;28;20545;-81
2022/03/08 09:16:17;;;;;;;0.40;0.40;;;;;;;;;;5004389;28;20053;-81
2022/03/08 09:18:43;;;;;;;0.45;0.45;;;;;;;;;;5004662;28;20112;-81
2022/03/08 09:21:12;;;;;;;0.50;0.50;;;;;;;;;;5004160;28;20103;-81
2022/03/08 09:23:39;;;;;;;0.50;0.50;;;;;;;;;;5004417;28;20135;-82
2022/03/08 09:26:05;;;;;;;0.85;0.85;;;;;;;;;;5004571;28;20029;-81
2022/03/08 09:28:32;;;;;;;0.68;0.68;;;;;;;;;;5004584;28;20105;-81
2022/03/08 09:30:59;;;;;;;0.50;0.50;;;;;;;;;;5003899;28;20118;-81
2022/03/08 09:33:25;;;;;;;0.63;0.63;;;;;;;;;;5004268;28;20519;-81
2022/03/08 09:35:51;;;;;;;0.40;0.40;;;;;;;;;;5004695;28;20036;-81
2022/03/08 09:38:17;;;;;;;0.50;0.50;;;;;;;;;;5004121;28;20030;-80
2022/03/08 09:40:43;;;;;;;0.93;0.93;;;;;;;;;;5004236;28;20045;-81
2022/03/08 09:43:10;;;;;;;0.45;0.45;;;;;;;;;;5004395;28;20037;-81
2022/03/08 09:45:36;;;;;;;0.80;0.80;;;;;;;;;;5004351;28;20032;-81
2022/03/08 09:48:02;;;;;;;0.57;0.57;;;;;;;;;;5004844;28;20042;-81
2022/03/08 09:50:31;;;;;;;0.50;0.50;;;;;;;;;;5003857;28;20049;-81
2022/03/08 09:52:58;;;;;;;1.13;1.13;;;;;;;;;;5003758;28;20398;-81
2022/03/08 09:55:25;;;;;;;;;;;;;;;;;;5004068;28;20513;-81
2022/03/08 09:57:52;;;;;;;0.10;0.10;;;;;;;;;;5004085;28;20369;-81
2022/03/08 10:00:18;;;;;;;;;;;;;;;;;;5004539;28;20101;-81
2022/03/08 10:02:47;;;;;;;0.43;0.43;;;;;;;;;;5004500;28;20495;-81
2022/03/08 10:05:13;;;;;;;0.50;0.50;;;;;;;;;;5003828;28;20032;-81
2022/03/08 10:07:39;;;;;;;1.02;1.02;;;;;;;;;;5003998;28;20405;-81
2022/03/08 10:10:06;;;;;;;0.40;0.40;;;;;;;;;;5003778;28;20026;-81
2022/03/08 10:12:32;;;;;;;0.47;0.47;;;;;;;;;;5002964;28;20030;-81
2022/03/08 10:14:58;;;;;;;0.40;0.40;;;;;;;;;;5004239;28;20046;-81
2022/03/08 10:17:38;;;;;;;0.57;0.57;;;;;;;;;;5003720;28;20030;-81
2022/03/08 10:20:05;;;;;;;0.50;0.50;;;;;;;;;;5003853;28;20284;-81
2022/03/08 10:22:30;;;;;;;;;;;;;;;;;;5004151;28;20105;-81
2022/03/08 10:25:12;;;;;;;0.60;0.60;;;;;;;;;;5003982;28;20059;-81
2022/03/08 10:27:41;;;;;;;0.60;0.60;;;;;;;;;;5003847;28;20545;-81
2022/03/08 10:30:12;;;;;;;0.75;0.75;;;;;;;;;;5000207;28;20041;-81
2022/03/08 10:32:38;;;;;;;0.70;0.70;;;;;;;;;;5002905;28;20085;-81
2022/03/08 10:35:05;;;;;;;0.70;0.70;;;;;;;;;;5003318;28;20029;-81
2022/03/08 10:37:35;;;;;;;0.70;0.70;;;;;;;;;;5003718;28;20064;-81
2022/03/08 10:40:03;;;;;;;0.60;0.60;;;;;;;;;;5003173;28;20057;-82
2022/03/08 10:42:30;;;;;;;0.60;0.60;;;;;;;;;;5003143;28;20038;-81
2022/03/08 10:44:56;;;;;;;;;;;;;;;;;;4998611;28;20578;-81
2022/03/08 10:47:22;;;;;;;0.60;0.60;;;;;;;;;;5003458;28;20016;-82
2022/03/08 10:49:56;;;;;;;0.20;0.20;;;;;;;;;;5003300;28;20084;-81
2022/03/08 10:52:27;;;;;;;0.25;0.25;;;;;;;;;;5002940;28;20061;-81
2022/03/08 10:54:53;;;;;;;0.30;0.30;;;;;;;;;;5002951;28;20521;-81
2022/03/08 10:57:19;;;;;;;0.30;0.30;;;;;;;;;;5002965;28;20819;-81
2022/03/08 10:59:55;;;;;;;0.30;0.30;;;;;;;;;;5003655;28;20058;-81
2022/03/08 11:02:22;;;;;;;0.40;0.40;;;;;;;;;;5003195;28;20037;-81
2022/03/08 11:04:48;;;;;;;0.40;0.40;;;;;;;;;;5002919;28;20029;-81
2022/03/08 11:07:14;;;;;;;0.30;0.30;;;;;;;;;;5002969;28;20045;-81
2022/03/08 11:09:41;;;;;;;0.40;0.40;;;;;;;;;;5003101;28;20112;-81
2022/03/08 11:12:07;;;;;;;0.50;0.50;;;;;;;;;;4999394;28;20042;-81
2022/03/08 11:14:34;;;;;;;0.47;0.47;;;;;;;;;;5003026;28;20030;-81
2022/03/08 11:17:00;;;;;;;0.50;0.50;;;;;;;;;;5003003;28;20034;-81
2022/03/08 11:19:27;;;;;;;0.50;0.50;;;;;;;;;;5002817;28;20026;-81
2022/03/08 11:21:54;;;;;;;0.50;0.50;;;;;;;;;;5002319;28;20060;-80
2022/03/08 11:24:21;;;;;;;0.50;0.50;;;;;;;;;;5000885;28;20099;-81
2022/03/08 11:26:48;;;;;;;0.50;0.50;;;;;;;;;;4988095;28;20892;-81
2022/03/08 11:29:14;;;;;;;;;;;;;;;;;;4999216;28;20042;-81
2022/03/08 11:31:41;;;;;;;0.50;0.50;;;;;;;;;;5002449;28;19944;-80
2022/03/08 11:34:11;;;;;;;0.50;0.50;;;;;;;;;;5002453;28;20034;-81
2022/03/08 11:36:38;;;;;;;0.45;0.45;;;;;;;;;;4999351;28;20029;-81
2022/03/08 11:39:17;;;;;;;0.45;0.45;;;;;;;;;;5003408;28;20034;-81
2022/03/08 11:41:44;;;;;;;0.43;0.43;;;;;;;;;;5001957;28;20068;-81
2022/03/08 11:44:40;;;;;;;0.40;0.40;;;;;;;;;;5003154;28;20022;-81
2022/03/08 11:47:10;;;;;;;0.47;0.47;;;;;;;;;;4989378;28;20061;-81
2022/03/08 11:49:40;;;;;;;0.40;0.40;;;;;;;;;;5005916;28;20055;-81
2022/03/08 11:52:10;;;;;;;0.60;0.60;;;;;;;;;;5006543;28;20386;-81
2022/03/08 11:54:37;;;;;;;0.50;0.50;;;;;;;;;;5005529;28;20100;-80
2022/03/08 11:57:03;;;;;;;0.47;0.47;;;;;;;;;;5006221;28;20091;-82
2022/03/08 11:59:29;;;;;;;0.50;0.50;;;;;;;;;;5005874;28;20058;-81
2022/03/08 12:01:55;;;;;;;0.50;0.50;;;;;;;;;;5005948;28;20069;-81
2022/03/08 12:04:21;;;;;;;0.50;0.50;;;;;;;;;;5005715;28;20041;-81
2022/03/08 12:06:58;;;;;;;0.57;0.57;;;;;;;;;;5006201;28;20045;-79
2022/03/08 12:09:28;;;;;;;0.50;0.50;;;;;;;;;;4991700;28;20022;-79
2022/03/08 12:11:57;;;;;;;0.50;0.50;;;;;;;;;;5004984;28;20046;-79
2022/03/08 12:14:23;;;;;;;0.50;0.50;;;;;;;;;;5005732;28;20054;-79
2022/03/08 12:17:05;;;;;;;0.50;0.50;;;;;;;;;;5004622;28;20087;-79
2022/03/08 12:19:31;;;;;;;0.45;0.45;;;;;;;;;;5003753;28;20049;-79
2022/03/08 12:21:57;;;;;;;0.20;0.20;;;;;;;;;;4993377;28;20111;-79
2022/03/08 12:24:24;;;;;;;0.20;0.20;;;;;;;;;;4999891;28;20040;-79
2022/03/08 12:26:56;;;;;;;0.10;0.10;;;;;;;;;;5006333;28;20201;-78
2022/03/08 12:29:41;;;;;;;0.20;0.20;;;;;;;;;;5005207;28;20048;-81
2022/03/08 12:32:07;;;;;;;0.20;0.20;;;;;;;;;;5005300;28;20038;-79
2022/03/08 12:34:36;;;;;;;0.30;0.30;;;;;;;;;;5005246;28;20034;-79
2022/03/08 12:37:11;;;;;;;0.40;0.40;;;;;;;;;;5005087;28;20044;-79
2022/03/08 12:39:44;;;;;;;0.30;0.30;;;;;;;;;;5005451;28;20053;-78
2022/03/08 12:42:20;;;;;;;0.30;0.30;;;;;;;;;;5005279;28;20030;-79
2022/03/08 12:45:00;;;;;;;0.30;0.30;;;;;;;;;;5005039;28;20033;-79
2022/03/08 12:47:27;;;;;;;0.30;0.30;;;;;;;;;;5003414;28;20021;-79
2022/03/08 12:49:53;;;;;;;0.30;0.30;;;;;;;;;;5004667;28;20038;-78
2022/03/08 12:52:19;;;;;;;0.50;0.50;;;;;;;;;;5004946;28;20077;-79
2022/03/08 12:54:46;;;;;;;0.40;0.40;;;;;;;;;;5003949;28;20038;-78
2022/03/08 12:57:12;;;;;;;;;;;;;;;;;;5004154;28;20117;-79
2022/03/08 12:59:42;;;;;;;0.60;0.60;;;;;;;;;;5004859;28;20025;-79
2022/03/08 13:02:09;;;;;;;0.50;0.50;;;;;;;;;;5004554;28;20045;-79
2022/03/08 13:04:35;;;;;;;0.65;0.65;;;;;;;;;;5004723;28;20141;-79
2022/03/08 13:07:12;;;;;;;0.40;0.40;;;;;;;;;;5004887;28;20044;-79
2022/03/08 13:09:57;;;;;;;0.43;0.43;;;;;;;;;;5004716;28;20026;-79
2022/03/08 13:12:25;;;;;;;0.40;0.40;;;;;;;;;;5001555;28;20924;-79
2022/03/08 13:15:06;;;;;;;0.50;0.50;;;;;;;;;;5005071;28;20030;-79
2022/03/08 13:17:32;;;;;;;0.40;0.40;;;;;;;;;;5004135;28;20030;-78
2022/03/08 13:19:59;;;;;;;0.40;0.40;;;;;;;;;;5002734;28;20901;-79
2022/03/08 13:22:25;;;;;;;0.50;0.50;;;;;;;;;;5004206;28;20037;-78
2022/03/08 13:25:19;;;;;;;0.43;0.43;;;;;;;;;;5004199;28;20026;-79
2022/03/08 13:27:54;;;;;;;0.47;0.47;;;;;;;;;;4987300;28;20038;-78
2022/03/08 13:30:21;;;;;;;0.60;0.60;;;;;;;;;;5003597;28;20041;-79
2022/03/08 13:32:47;;;;;;;0.52;0.52;;;;;;;;;;5004216;28;20034;-78
2022/03/08 13:35:13;;;;;;;0.50;0.50;;;;;;;;;;5003750;28;20719;-78
2022/03/08 13:37:50;;;;;;;0.50;0.50;;;;;;;;;;5003578;28;20527;-78
2022/03/08 13:40:26;;;;;;;0.47;0.47;;;;;;;;;;5003862;28;20276;-78
2022/03/08 13:42:52;;;;;;;0.40;0.40;;;;;;;;;;5002498;28;20022;-79
2022/03/08 13:45:18;;;;;;;0.50;0.50;;;;;;;;;;5003765;28;20045;-78
2022/03/08 13:47:44;;;;;;;0.55;0.55;;;;;;;;;;5003077;28;20283;-78
2022/03/08 13:50:11;;;;;;;0.60;0.60;;;;;;;;;;5003617;28;20049;-78
2022/03/08 13:52:37;;;;;;;0.50;0.50;;;;;;;;;;5002390;28;20284;-79
2022/03/08 13:55:04;;;;;;;0.50;0.50;;;;;;;;;;5003741;28;20053;-79
2022/03/08 13:57:30;;;;;;;0.50;0.50;;;;;;;;;;5003489;28;20046;-78
2022/03/08 13:59:56;;;;;;;0.50;0.50;;;;;;;;;;5004279;28;20053;-78
2022/03/08 14:02:22;;;;;;;0.60;0.60;;;;;;;;;;5003681;28;20029;-79
2022/03/08 14:04:48;;;;;;;0.50;0.50;;;;;;;;;;5003215;28;20496;-78
2022/03/08 14:07:22;;;;;;;0.50;0.50;;;;;;;;;;5003365;28;20091;-81
2022/03/08 14:09:55;;;;;;;0.60;0.60;;;;;;;;;;4988962;28;20960;-81
2022/03/08 14:12:21;;;;;;;0.55;0.55;;;;;;;;;;5002625;28;20481;-81
2022/03/08 14:15:01;;;;;;;0.60;0.60;;;;;;;;;;5004035;28;20572;-81
2022/03/08 14:17:29;;;;;;;0.50;0.50;;;;;;;;;;5003364;28;20065;-81
2022/03/08 14:19:55;;;;;;;0.40;0.40;;;;;;;;;;5003425;28;20068;-81
2022/03/08 14:22:21;;;;;;;0.57;0.57;;;;;;;;;;5003517;28;20124;-81
2022/03/08 14:25:01;;;;;;;0.50;0.50;;;;;;;;;;5003259;28;20059;-81
2022/03/08 14:27:27;;;;;;;0.50;0.50;;;;;;;;;;5003064;28;20034;-81
2022/03/08 14:30:00;;;;;;;0.60;0.60;;;;;;;;;;5001729;28;20033;-80
2022/03/08 14:32:33;;;;;;;0.50;0.50;;;;;;;;;;5002989;28;20528;-81
2022/03/08 14:35:09;;;;;;;0.55;0.55;;;;;;;;;;5003057;28;20170;-81
2022/03/08 14:37:35;;;;;;;0.50;0.50;;;;;;;;;;5002993;28;20093;-81
2022/03/08 14:40:01;;;;;;;0.50;0.50;;;;;;;;;;5003070;28;20033;-81
2022/03/08 14:42:34;;;;;;;0.52;0.52;;;;;;;;;;5003023;28;20026;-80
2022/03/08 14:45:00;;;;;;;0.52;0.52;;;;;;;;;;5017020;28;20492;-81
2022/03/08 14:47:28;;;;;;;0.57;0.57;;;;;;;;;;5002496;28;20932;-81